createdAt,value
2019-05-19T00:00:35.028Z,5.00
2019-05-19T00:01:35.018Z,5.20
2019-05-19T00:02:35.040Z,5.30
2019-05-19T00:03:34.989Z,5.10
2019-05-19T00:04:34.991Z,5.60
2019-05-19T00:05:34.993Z,4.90
2019-05-19T00:06:34.964Z,5.30
2019-05-19T00:07:34.969Z,5.30
2019-05-19T00:08:34.929Z,5.10
2019-05-19T00:09:45.510Z,6.00
2019-05-19T00:10:34.975Z,4.80
2019-05-19T00:11:34.895Z,5.30
2019-05-19T00:12:34.885Z,5.50
2019-05-19T00:13:34.876Z,5.50
2019-05-19T00:14:34.868Z,5.30
2019-05-19T00:15:34.872Z,4.90
2019-05-19T00:16:34.846Z,5.70
2019-05-19T00:17:34.853Z,5.20
2019-05-19T00:18:34.835Z,5.50
2019-05-19T00:19:34.831Z,5.10
2019-05-19T00:20:34.845Z,5.40
2019-05-19T00:21:34.801Z,5.70
2019-05-19T00:22:34.797Z,5.90
2019-05-19T00:23:34.792Z,5.40
2019-05-19T00:24:34.766Z,5.80
2019-05-19T00:25:34.789Z,5.90
2019-05-19T00:26:34.754Z,5.60
2019-05-19T00:27:34.774Z,6.00
2019-05-19T00:28:34.734Z,5.40
2019-05-19T00:29:34.717Z,5.80
2019-05-19T00:30:34.705Z,5.80
2019-05-19T00:31:34.749Z,6.10
2019-05-19T00:32:34.672Z,6.10
2019-05-19T00:33:34.693Z,5.90
2019-05-19T00:34:34.659Z,5.80
2019-05-19T00:35:34.654Z,5.50
2019-05-19T00:36:34.636Z,6.30
2019-05-19T00:37:34.653Z,6.50
2019-05-19T00:38:34.612Z,6.20
2019-05-19T00:39:35.350Z,6.10
2019-05-19T00:40:45.324Z,6.50
2019-05-19T00:41:34.585Z,5.60
2019-05-19T00:42:34.560Z,6.40
2019-05-19T00:43:34.577Z,6.40
2019-05-19T00:44:34.555Z,7.10
2019-05-19T00:45:34.544Z,6.70
2019-05-19T00:46:34.527Z,6.80
2019-05-19T00:47:34.528Z,6.40
2019-05-19T00:48:34.515Z,7.10
2019-05-19T00:49:41.320Z,7.10
2019-05-19T00:50:35.511Z,6.60
2019-05-19T00:51:34.477Z,6.90
2019-05-19T00:52:34.474Z,7.50
2019-05-19T00:53:34.472Z,7.10
2019-05-19T00:54:34.441Z,7.60
2019-05-19T00:55:34.444Z,8.00
2019-05-19T00:56:34.416Z,7.10
2019-05-19T00:57:34.433Z,7.80
2019-05-19T00:58:34.400Z,7.80
2019-05-19T00:59:34.407Z,7.90
2019-05-19T01:00:34.390Z,8.10
2019-05-19T01:01:34.360Z,7.60
2019-05-19T01:02:34.901Z,8.70
2019-05-19T01:03:34.358Z,8.10
2019-05-19T01:04:34.332Z,8.30
2019-05-19T01:05:34.362Z,9.10
2019-05-19T01:06:34.338Z,8.80
2019-05-19T01:07:34.329Z,8.70
2019-05-19T01:08:34.299Z,9.30
2019-05-19T01:09:34.290Z,8.90
2019-05-19T01:10:34.273Z,8.30
2019-05-19T01:11:44.571Z,8.80
2019-05-19T01:12:34.242Z,9.40
2019-05-19T01:13:34.228Z,10.90
2019-05-19T01:14:34.223Z,10.00
2019-05-19T01:15:34.210Z,10.20
2019-05-19T01:16:34.218Z,11.70
2019-05-19T01:17:34.203Z,12.30
2019-05-19T01:18:34.191Z,12.20
2019-05-19T01:19:34.180Z,12.40
2019-05-19T01:20:34.161Z,11.50
2019-05-19T01:21:34.170Z,11.90
2019-05-19T01:22:34.164Z,12.20
2019-05-19T01:23:34.165Z,12.40
2019-05-19T01:24:34.129Z,11.40
2019-05-19T01:25:34.133Z,12.30
2019-05-19T01:26:34.130Z,12.00
2019-05-19T01:27:34.097Z,12.60
2019-05-19T01:28:34.077Z,12.40
2019-05-19T01:29:34.078Z,12.50
2019-05-19T01:30:34.064Z,13.00
2019-05-19T01:31:34.052Z,13.10
2019-05-19T01:32:34.098Z,12.40
2019-05-19T01:33:34.074Z,12.80
2019-05-19T01:34:34.015Z,11.90
2019-05-19T01:35:34.009Z,12.50
2019-05-19T01:36:33.989Z,11.70
2019-05-19T01:37:34.024Z,12.20
2019-05-19T01:38:33.991Z,12.20
2019-05-19T01:39:33.981Z,12.00
2019-05-19T01:40:33.953Z,12.20
2019-05-19T01:41:33.946Z,11.60
2019-05-19T01:42:44.772Z,11.20
2019-05-19T01:43:33.931Z,11.90
2019-05-19T01:44:33.902Z,11.40
2019-05-19T01:45:33.939Z,11.40
2019-05-19T01:46:33.889Z,11.70
2019-05-19T01:47:33.882Z,12.30
2019-05-19T01:48:33.875Z,11.20
2019-05-19T01:49:33.863Z,11.40
2019-05-19T01:50:33.848Z,11.00
2019-05-19T01:51:33.840Z,11.60
2019-05-19T01:52:33.831Z,10.80
2019-05-19T01:53:33.836Z,10.80
2019-05-19T01:54:33.823Z,10.60
2019-05-19T01:55:33.804Z,11.30
2019-05-19T01:56:33.791Z,10.70
2019-05-19T01:57:33.770Z,11.00
2019-05-19T01:58:33.784Z,12.20
2019-05-19T01:59:33.773Z,11.30
2019-05-19T02:00:33.779Z,10.30
2019-05-19T02:01:33.757Z,10.60
2019-05-19T02:02:33.723Z,10.30
2019-05-19T02:03:33.729Z,10.20
2019-05-19T02:04:33.789Z,9.80
2019-05-19T02:05:33.715Z,10.60
2019-05-19T02:06:33.691Z,10.30
2019-05-19T02:07:33.695Z,10.50
2019-05-19T02:08:33.661Z,11.20
2019-05-19T02:09:33.659Z,10.80
2019-05-19T02:10:33.652Z,10.60
2019-05-19T02:11:33.623Z,10.30
2019-05-19T02:12:33.610Z,10.70
2019-05-19T02:13:43.996Z,10.90
2019-05-19T02:14:33.586Z,10.30
2019-05-19T02:15:33.590Z,8.90
2019-05-19T02:16:33.613Z,8.70
2019-05-19T02:17:33.556Z,8.70
2019-05-19T02:18:33.555Z,9.30
2019-05-19T02:19:33.564Z,8.80
2019-05-19T02:20:33.979Z,8.60
2019-05-19T02:21:33.526Z,8.00
2019-05-19T02:22:33.543Z,8.90
2019-05-19T02:23:33.485Z,8.60
2019-05-19T02:24:33.489Z,8.10
2019-05-19T02:25:33.493Z,9.00
2019-05-19T02:26:33.511Z,8.60
2019-05-19T02:27:33.456Z,8.70
2019-05-19T02:28:33.455Z,8.50
2019-05-19T02:29:33.425Z,9.70
2019-05-19T02:30:33.426Z,9.30
2019-05-19T02:31:33.426Z,8.60
2019-05-19T02:32:33.457Z,8.10
2019-05-19T02:33:35.832Z,7.90
2019-05-19T02:34:33.386Z,8.80
2019-05-19T02:35:33.372Z,8.20
2019-05-19T02:36:33.369Z,7.90
2019-05-19T02:37:33.347Z,6.80
2019-05-19T02:38:33.366Z,7.20
2019-05-19T02:39:33.335Z,8.40
2019-05-19T02:40:33.325Z,7.30
2019-05-19T02:41:33.313Z,8.00
2019-05-19T02:42:33.349Z,8.30
2019-05-19T02:43:33.294Z,7.80
2019-05-19T02:44:44.092Z,7.80
2019-05-19T02:45:33.271Z,7.70
2019-05-19T02:46:33.263Z,7.50
2019-05-19T02:47:33.240Z,6.90
2019-05-19T02:48:33.302Z,7.30
2019-05-19T02:49:33.220Z,7.10
2019-05-19T02:50:50.515Z,7.90
2019-05-19T02:51:34.221Z,7.20
2019-05-19T02:52:33.185Z,8.20
2019-05-19T02:53:33.191Z,7.90
2019-05-19T02:54:33.193Z,7.90
2019-05-19T02:55:33.158Z,8.30
2019-05-19T02:56:33.184Z,7.90
2019-05-19T02:57:33.164Z,8.10
2019-05-19T02:58:33.186Z,8.00
2019-05-19T02:59:33.122Z,7.00
2019-05-19T03:00:33.134Z,7.40
2019-05-19T03:01:33.102Z,7.60
2019-05-19T03:02:33.101Z,7.10
2019-05-19T03:03:33.082Z,7.60
2019-05-19T03:04:33.126Z,6.80
2019-05-19T03:05:33.051Z,7.40
2019-05-19T03:06:33.055Z,6.80
2019-05-19T03:07:33.048Z,7.00
2019-05-19T03:08:33.037Z,6.90
2019-05-19T03:09:33.012Z,7.10
2019-05-19T03:10:33.035Z,7.30
2019-05-19T03:11:33.007Z,7.20
2019-05-19T03:12:32.991Z,6.60
2019-05-19T03:13:32.963Z,7.10
2019-05-19T03:14:33.039Z,7.00
2019-05-19T03:15:43.862Z,6.50
2019-05-19T03:16:32.961Z,6.60
2019-05-19T03:17:32.945Z,7.10
2019-05-19T03:18:32.911Z,6.10
2019-05-19T03:19:32.911Z,5.60
2019-05-19T03:20:32.893Z,4.90
2019-05-19T03:21:32.884Z,4.40
2019-05-19T03:22:32.873Z,3.60
2019-05-19T03:33:32.749Z,2.60
2019-05-19T03:37:33.483Z,2.70
2019-05-19T03:46:43.860Z,3.10
2019-05-19T04:17:42.580Z,2.90
2019-05-19T04:25:32.221Z,3.00
2019-05-19T04:26:32.187Z,3.60
2019-05-19T04:27:32.175Z,3.20
2019-05-19T04:28:32.173Z,3.10
2019-05-19T04:29:32.161Z,3.40
2019-05-19T04:30:32.134Z,3.30
2019-05-19T04:31:32.150Z,3.70
2019-05-19T04:32:32.131Z,3.20
2019-05-19T04:33:32.126Z,3.20
2019-05-19T04:34:32.103Z,3.40
2019-05-19T04:35:32.117Z,3.30
2019-05-19T04:36:32.080Z,3.40
2019-05-19T04:37:32.083Z,3.00
2019-05-19T04:38:32.071Z,3.30
2019-05-19T04:39:32.054Z,3.30
2019-05-19T04:40:32.038Z,3.20
2019-05-19T04:41:32.016Z,3.10
2019-05-19T04:42:32.049Z,3.00
2019-05-19T04:43:32.042Z,3.00
2019-05-19T04:44:31.975Z,3.30
2019-05-19T04:45:31.988Z,2.60
2019-05-19T04:46:31.980Z,2.80
2019-05-19T04:47:31.967Z,3.20
2019-05-19T04:48:42.536Z,3.20
2019-05-19T04:49:31.932Z,2.90
2019-05-19T04:50:31.932Z,3.10
2019-05-19T04:51:31.904Z,3.00
2019-05-19T04:52:31.912Z,3.50
2019-05-19T04:53:31.893Z,4.20
2019-05-19T04:54:31.881Z,3.30
2019-05-19T04:55:31.855Z,3.40
2019-05-19T04:56:31.843Z,4.00
2019-05-19T04:57:31.855Z,3.80
2019-05-19T04:58:31.845Z,3.40
2019-05-19T04:59:31.848Z,3.40
2019-05-19T05:00:31.822Z,3.40
2019-05-19T05:01:31.807Z,3.40
2019-05-19T05:02:31.808Z,3.40
2019-05-19T05:03:31.832Z,3.10
2019-05-19T05:04:31.782Z,3.40
2019-05-19T05:05:31.772Z,3.20
2019-05-19T05:06:31.804Z,3.00
2019-05-19T05:07:31.740Z,3.40
2019-05-19T05:08:31.723Z,2.70
2019-05-19T05:09:31.732Z,2.50
2019-05-19T05:10:31.701Z,2.10
2019-05-19T05:11:31.694Z,2.00
2019-05-19T05:12:31.720Z,2.00
2019-05-19T05:13:31.703Z,2.20
2019-05-19T05:14:31.685Z,1.80
2019-05-19T05:15:31.660Z,1.90
2019-05-19T05:16:31.659Z,1.70
2019-05-19T05:17:31.631Z,1.90
2019-05-19T05:18:31.613Z,2.30
2019-05-19T05:19:42.240Z,2.10
2019-05-19T05:20:31.600Z,1.80
2019-05-19T05:21:31.586Z,2.10
2019-05-19T05:22:31.579Z,1.80
2019-05-19T05:23:31.571Z,1.70
2019-05-19T05:24:31.540Z,2.20
2019-05-19T05:25:31.570Z,1.80
2019-05-19T05:26:31.540Z,1.80
2019-05-19T05:27:31.539Z,1.80
2019-05-19T05:28:31.521Z,1.80
2019-05-19T05:29:31.507Z,1.60
2019-05-19T05:30:31.487Z,1.90
2019-05-19T05:31:31.487Z,1.80
2019-05-19T05:32:31.471Z,1.80
2019-05-19T05:33:31.471Z,1.80
2019-05-19T05:34:31.456Z,1.80
2019-05-19T05:35:31.437Z,1.50
2019-05-19T05:36:31.469Z,1.60
2019-05-19T05:37:31.406Z,1.40
2019-05-19T05:38:31.397Z,1.70
2019-05-19T05:39:31.385Z,2.00
2019-05-19T05:40:31.386Z,1.50
2019-05-19T05:41:31.377Z,1.70
2019-05-19T05:42:32.079Z,1.50
2019-05-19T05:43:31.356Z,1.50
2019-05-19T05:44:31.410Z,1.90
2019-05-19T05:45:31.387Z,1.70
2019-05-19T05:46:31.319Z,1.30
2019-05-19T05:47:31.296Z,1.60
2019-05-19T05:48:31.311Z,1.40
2019-05-19T05:49:31.288Z,1.50
2019-05-19T05:50:43.419Z,1.60
2019-05-19T05:51:31.279Z,1.50
2019-05-19T05:52:38.705Z,1.50
2019-05-19T05:53:32.247Z,1.60
2019-05-19T05:54:31.227Z,1.70
2019-05-19T05:55:31.217Z,1.90
2019-05-19T05:56:31.230Z,1.40
2019-05-19T05:57:31.207Z,1.40
2019-05-19T05:58:31.199Z,1.90
2019-05-19T05:59:31.184Z,1.90
2019-05-19T06:00:31.188Z,1.70
2019-05-19T06:01:31.173Z,1.50
2019-05-19T06:02:31.156Z,1.50
2019-05-19T06:03:31.207Z,1.50
2019-05-19T06:04:31.200Z,1.30
2019-05-19T06:05:31.118Z,1.60
2019-05-19T06:06:31.120Z,1.30
2019-05-19T06:07:31.099Z,1.70
2019-05-19T06:08:31.078Z,1.60
2019-05-19T06:09:31.087Z,1.30
2019-05-19T06:10:31.065Z,1.80
2019-05-19T06:11:31.047Z,1.40
2019-05-19T06:12:31.049Z,1.60
2019-05-19T06:13:31.037Z,1.30
2019-05-19T06:14:31.036Z,1.40
2019-05-19T06:15:31.027Z,1.40
2019-05-19T06:16:30.997Z,1.50
2019-05-19T06:17:30.985Z,1.50
2019-05-19T06:18:31.003Z,1.40
2019-05-19T06:19:30.975Z,1.50
2019-05-19T06:20:30.956Z,1.60
2019-05-19T06:21:42.086Z,1.10
2019-05-19T06:22:30.935Z,1.50
2019-05-19T06:23:30.936Z,1.40
2019-05-19T06:24:30.907Z,1.40
2019-05-19T06:25:30.994Z,1.40
2019-05-19T06:26:30.909Z,1.70
2019-05-19T06:27:30.896Z,1.40
2019-05-19T06:28:30.866Z,1.60
2019-05-19T06:29:30.854Z,1.40
2019-05-19T06:30:30.837Z,1.60
2019-05-19T06:31:30.848Z,1.80
2019-05-19T06:32:30.846Z,1.60
2019-05-19T06:33:30.816Z,2.20
2019-05-19T06:34:30.806Z,1.20
2019-05-19T06:35:30.821Z,1.70
2019-05-19T06:36:30.827Z,1.50
2019-05-19T06:37:30.766Z,1.60
2019-05-19T06:38:30.764Z,1.40
2019-05-19T06:39:30.758Z,1.30
2019-05-19T06:40:30.736Z,1.30
2019-05-19T06:41:30.727Z,1.60
2019-05-19T06:42:30.727Z,1.60
2019-05-19T06:43:30.738Z,2.30
2019-05-19T06:44:30.707Z,1.60
2019-05-19T06:45:30.734Z,1.30
2019-05-19T06:46:30.679Z,1.60
2019-05-19T06:47:30.737Z,1.80
2019-05-19T06:48:30.711Z,1.60
2019-05-19T06:49:30.647Z,1.60
2019-05-19T06:50:30.637Z,1.40
2019-05-19T06:51:30.645Z,1.60
2019-05-19T06:52:41.756Z,1.50
2019-05-19T06:53:30.596Z,1.50
2019-05-19T06:54:30.598Z,1.50
2019-05-19T06:55:30.631Z,1.30
2019-05-19T06:56:30.564Z,1.60
2019-05-19T06:57:30.556Z,1.90
2019-05-19T06:58:30.620Z,1.40
2019-05-19T06:59:30.551Z,1.50
2019-05-19T07:00:30.528Z,1.40
2019-05-19T07:01:30.538Z,1.70
2019-05-19T07:02:30.508Z,1.60
2019-05-19T07:03:30.490Z,1.40
2019-05-19T07:04:30.528Z,1.50
2019-05-19T07:05:30.471Z,1.50
2019-05-19T07:06:30.473Z,1.50
2019-05-19T07:07:30.499Z,1.60
2019-05-19T07:08:30.468Z,1.90
2019-05-19T07:09:30.492Z,1.70
2019-05-19T07:10:30.478Z,1.60
2019-05-19T07:11:30.420Z,1.80
2019-05-19T07:12:30.406Z,1.40
2019-05-19T07:13:30.396Z,1.50
2019-05-19T07:14:30.386Z,1.50
2019-05-19T07:15:30.367Z,1.60
2019-05-19T07:16:30.385Z,1.50
2019-05-19T07:17:30.360Z,1.60
2019-05-19T07:18:30.326Z,1.50
2019-05-19T07:19:30.327Z,1.40
2019-05-19T07:20:30.317Z,1.40
2019-05-19T07:21:30.317Z,1.50
2019-05-19T07:22:30.335Z,1.90
2019-05-19T07:23:41.031Z,1.40
2019-05-19T07:24:30.279Z,1.80
2019-05-19T07:25:30.259Z,1.60
2019-05-19T07:26:30.260Z,1.50
2019-05-19T07:27:30.253Z,1.60
2019-05-19T07:28:30.268Z,1.60
2019-05-19T07:29:30.231Z,1.40
2019-05-19T07:30:30.220Z,1.70
2019-05-19T07:31:30.211Z,1.80
2019-05-19T07:32:30.190Z,1.70
2019-05-19T07:33:30.200Z,1.20
2019-05-19T07:34:30.214Z,1.70
2019-05-19T07:35:30.157Z,1.30
2019-05-19T07:36:30.160Z,1.50
2019-05-19T07:37:30.160Z,1.50
2019-05-19T07:38:30.147Z,1.40
2019-05-19T07:39:30.141Z,1.50
2019-05-19T07:40:30.108Z,1.40
2019-05-19T07:41:30.099Z,1.50
2019-05-19T07:42:30.096Z,1.70
2019-05-19T07:43:30.091Z,1.60
2019-05-19T07:44:30.072Z,1.60
2019-05-19T07:45:30.071Z,1.60
2019-05-19T07:46:30.037Z,1.50
2019-05-19T07:47:30.049Z,1.40
2019-05-19T07:48:30.028Z,1.90
2019-05-19T07:49:30.048Z,1.70
2019-05-19T07:50:30.005Z,1.60
2019-05-19T07:51:29.987Z,1.40
2019-05-19T07:52:29.991Z,1.60
2019-05-19T07:53:42.261Z,1.40
2019-05-19T07:54:40.594Z,1.60
2019-05-19T07:55:29.974Z,1.80
2019-05-19T07:56:29.934Z,1.60
2019-05-19T07:57:29.931Z,1.40
2019-05-19T07:58:29.912Z,1.50
2019-05-19T07:59:29.916Z,1.60
2019-05-19T08:00:29.991Z,1.80
2019-05-19T08:01:29.884Z,1.60
2019-05-19T08:02:29.894Z,1.40
2019-05-19T08:03:29.866Z,1.60
2019-05-19T08:04:29.897Z,1.60
2019-05-19T08:05:29.856Z,1.70
2019-05-19T08:06:29.825Z,1.30
2019-05-19T08:07:29.824Z,1.70
2019-05-19T08:08:29.829Z,1.20
2019-05-19T08:09:29.813Z,1.90
2019-05-19T08:10:29.844Z,1.50
2019-05-19T08:11:29.817Z,1.60
2019-05-19T08:12:29.782Z,1.60
2019-05-19T08:13:29.776Z,1.50
2019-05-19T08:14:29.762Z,1.70
2019-05-19T08:15:29.780Z,1.70
2019-05-19T08:16:29.741Z,2.10
2019-05-19T08:17:29.722Z,1.60
2019-05-19T08:18:29.725Z,1.70
2019-05-19T08:19:29.700Z,2.10
2019-05-19T08:20:29.700Z,1.90
2019-05-19T08:21:29.709Z,1.80
2019-05-19T08:22:29.674Z,1.60
2019-05-19T08:23:29.664Z,1.40
2019-05-19T08:24:29.642Z,1.60
2019-05-19T08:25:40.525Z,1.60
2019-05-19T08:26:29.625Z,1.70
2019-05-19T08:27:29.649Z,1.80
2019-05-19T08:28:29.611Z,1.50
2019-05-19T08:29:29.590Z,1.80
2019-05-19T08:30:29.660Z,1.60
2019-05-19T08:31:29.652Z,1.50
2019-05-19T08:32:29.570Z,1.70
2019-05-19T08:33:29.595Z,1.50
2019-05-19T08:34:29.536Z,1.60
2019-05-19T08:35:29.523Z,1.70
2019-05-19T08:36:29.597Z,1.90
2019-05-19T08:37:29.525Z,1.70
2019-05-19T08:38:29.489Z,1.50
2019-05-19T08:39:29.509Z,1.30
2019-05-19T08:40:29.513Z,1.50
2019-05-19T08:41:29.460Z,1.40
2019-05-19T08:42:29.446Z,1.60
2019-05-19T08:43:29.434Z,2.10
2019-05-19T08:44:29.458Z,1.50
2019-05-19T08:45:29.424Z,1.90
2019-05-19T08:46:29.415Z,1.80
2019-05-19T08:47:29.395Z,1.50
2019-05-19T08:48:29.384Z,1.40
2019-05-19T08:49:29.441Z,1.50
2019-05-19T08:50:29.380Z,1.40
2019-05-19T08:51:29.378Z,1.60
2019-05-19T08:52:29.343Z,1.70
2019-05-19T08:53:29.347Z,1.80
2019-05-19T08:54:29.326Z,2.20
2019-05-19T08:55:29.328Z,1.60
2019-05-19T08:56:39.863Z,1.90
2019-05-19T08:57:29.375Z,1.90
2019-05-19T08:58:29.277Z,1.80
2019-05-19T08:59:29.267Z,1.70
2019-05-19T09:00:29.267Z,1.60
2019-05-19T09:01:29.246Z,1.60
2019-05-19T09:02:29.235Z,1.60
2019-05-19T09:03:29.239Z,1.30
2019-05-19T09:04:29.226Z,1.60
2019-05-19T09:05:29.256Z,1.80
2019-05-19T09:06:29.195Z,1.70
2019-05-19T09:07:29.189Z,1.40
2019-05-19T09:08:29.173Z,1.50
2019-05-19T09:09:29.186Z,1.60
2019-05-19T09:10:29.153Z,1.50
2019-05-19T09:11:29.180Z,1.70
2019-05-19T09:12:29.126Z,1.60
2019-05-19T09:13:29.135Z,1.60
2019-05-19T09:14:29.127Z,1.60
2019-05-19T09:15:29.109Z,1.50
2019-05-19T09:16:29.106Z,1.60
2019-05-19T09:17:29.080Z,1.40
2019-05-19T09:18:29.078Z,1.50
2019-05-19T09:19:29.068Z,1.60
2019-05-19T09:20:29.055Z,1.60
2019-05-19T09:21:29.133Z,1.50
2019-05-19T09:22:29.028Z,1.60
2019-05-19T09:23:29.050Z,1.70
2019-05-19T09:24:30.993Z,2.00
2019-05-19T09:25:28.996Z,1.70
2019-05-19T09:26:28.996Z,2.00
2019-05-19T09:27:39.266Z,2.40
2019-05-19T09:28:28.971Z,1.80
2019-05-19T09:29:28.986Z,1.60
2019-05-19T09:30:28.947Z,1.90
2019-05-19T09:31:28.929Z,1.50
2019-05-19T09:32:28.965Z,1.50
2019-05-19T09:33:28.967Z,1.40
2019-05-19T09:34:28.908Z,1.00
2019-05-19T09:35:28.908Z,1.20
2019-05-19T09:36:28.866Z,1.00
2019-05-19T09:37:28.870Z,1.20
2019-05-19T09:38:28.906Z,1.20
2019-05-19T09:39:28.848Z,1.00
2019-05-19T09:40:28.835Z,1.10
2019-05-19T09:41:28.823Z,1.20
2019-05-19T09:42:28.811Z,1.40
2019-05-19T09:43:28.809Z,1.30
2019-05-19T09:44:28.846Z,1.70
2019-05-19T09:45:28.789Z,1.50
2019-05-19T09:46:28.777Z,1.30
2019-05-19T09:47:28.778Z,1.10
2019-05-19T09:48:28.767Z,1.10
2019-05-19T09:49:28.759Z,1.30
2019-05-19T09:50:28.716Z,1.30
2019-05-19T09:51:28.718Z,1.00
2019-05-19T09:52:28.707Z,1.20
2019-05-19T09:53:28.712Z,2.80
2019-05-19T09:54:28.708Z,2.30
2019-05-19T09:55:28.675Z,2.10
2019-05-19T09:56:28.673Z,1.90
2019-05-19T09:57:28.669Z,2.10
2019-05-19T09:58:39.192Z,2.40
2019-05-19T09:59:28.642Z,2.10
2019-05-19T10:00:28.673Z,2.00
2019-05-19T10:01:28.631Z,1.60
2019-05-19T10:02:28.602Z,1.40
2019-05-19T10:03:28.599Z,1.40
2019-05-19T10:04:28.591Z,1.30
2019-05-19T10:05:28.571Z,1.40
2019-05-19T10:06:28.570Z,1.60
2019-05-19T10:07:28.565Z,1.90
2019-05-19T10:08:28.560Z,2.30
2019-05-19T10:09:28.529Z,2.70
2019-05-19T10:10:28.510Z,3.30
2019-05-19T10:11:28.547Z,2.70
2019-05-19T10:12:28.510Z,3.10
2019-05-19T10:13:28.490Z,3.50
2019-05-19T10:14:28.471Z,2.90
2019-05-19T10:15:28.492Z,3.10
2019-05-19T10:16:28.500Z,3.30
2019-05-19T10:17:28.444Z,3.10
2019-05-19T10:18:28.442Z,3.30
2019-05-19T10:19:28.453Z,3.20
2019-05-19T10:20:28.430Z,4.50
2019-05-19T10:21:28.422Z,3.20
2019-05-19T10:22:28.403Z,3.40
2019-05-19T10:23:28.381Z,4.40
2019-05-19T10:24:28.392Z,3.60
2019-05-19T10:25:28.373Z,3.70
2019-05-19T10:26:28.373Z,3.70
2019-05-19T10:27:28.354Z,3.20
2019-05-19T10:28:28.341Z,3.60
2019-05-19T10:29:38.832Z,4.20
2019-05-19T10:30:28.304Z,3.30
2019-05-19T10:31:28.294Z,2.70
2019-05-19T10:32:28.297Z,2.60
2019-05-19T10:33:28.283Z,2.30
2019-05-19T10:34:28.315Z,2.60
2019-05-19T10:35:28.255Z,3.20
2019-05-19T10:36:28.257Z,3.00
2019-05-19T10:37:28.239Z,2.70
2019-05-19T10:38:28.244Z,2.30
2019-05-19T10:39:28.227Z,2.30
2019-05-19T10:40:28.207Z,2.50
2019-05-19T10:41:28.194Z,2.00
2019-05-19T10:42:28.176Z,2.10
2019-05-19T10:43:28.177Z,2.10
2019-05-19T10:44:28.207Z,2.20
2019-05-19T10:45:28.153Z,2.00
2019-05-19T10:46:28.165Z,2.10
2019-05-19T10:47:28.140Z,2.20
2019-05-19T10:48:28.126Z,2.10
2019-05-19T10:49:28.112Z,2.10
2019-05-19T10:50:28.165Z,2.50
2019-05-19T10:51:28.087Z,2.20
2019-05-19T10:52:28.076Z,2.40
2019-05-19T10:53:28.079Z,2.30
2019-05-19T10:54:28.064Z,2.20
2019-05-19T10:55:36.019Z,2.20
2019-05-19T10:56:29.044Z,2.10
2019-05-19T10:57:28.028Z,2.10
2019-05-19T10:58:28.013Z,2.20
2019-05-19T10:59:28.009Z,2.00
2019-05-19T11:00:39.894Z,3.10
2019-05-19T11:01:28.001Z,2.50
2019-05-19T11:02:27.981Z,2.40
2019-05-19T11:03:27.960Z,2.50
2019-05-19T11:04:27.950Z,3.40
2019-05-19T11:05:27.961Z,5.80
2019-05-19T11:06:27.973Z,5.60
2019-05-19T11:07:27.933Z,5.00
2019-05-19T11:08:27.913Z,3.00
2019-05-19T11:09:27.912Z,2.10
2019-05-19T11:10:27.908Z,1.90
2019-05-19T11:11:27.892Z,2.00
2019-05-19T11:12:27.920Z,1.80
2019-05-19T11:13:27.863Z,1.90
2019-05-19T11:14:27.853Z,2.00
2019-05-19T11:15:27.843Z,1.70
2019-05-19T11:16:27.820Z,2.20
2019-05-19T11:17:27.836Z,2.40
2019-05-19T11:18:27.835Z,3.20
2019-05-19T11:19:27.904Z,3.10
2019-05-19T11:20:27.800Z,2.30
2019-05-19T11:21:27.838Z,2.80
2019-05-19T11:22:27.786Z,1.80
2019-05-19T11:23:27.773Z,2.40
2019-05-19T11:24:27.745Z,2.40
2019-05-19T11:25:34.090Z,1.90
2019-05-19T11:26:28.733Z,2.40
2019-05-19T11:27:27.771Z,2.10
2019-05-19T11:28:27.711Z,2.30
2019-05-19T11:29:27.695Z,2.40
2019-05-19T11:30:27.690Z,2.00
2019-05-19T11:31:38.765Z,2.10
2019-05-19T11:32:27.666Z,2.20
2019-05-19T11:33:27.697Z,2.00
2019-05-19T11:34:27.651Z,2.20
2019-05-19T11:35:27.624Z,2.50
2019-05-19T11:36:27.629Z,2.20
2019-05-19T11:37:27.607Z,2.10
2019-05-19T11:38:27.610Z,2.30
2019-05-19T11:39:27.599Z,2.20
2019-05-19T11:40:27.599Z,2.40
2019-05-19T11:41:27.557Z,2.10
2019-05-19T11:42:27.564Z,2.40
2019-05-19T11:43:27.559Z,2.10
2019-05-19T11:44:27.552Z,1.90
2019-05-19T11:45:27.526Z,2.40
2019-05-19T11:46:27.537Z,2.20
2019-05-19T11:47:27.519Z,2.00
2019-05-19T11:48:27.507Z,2.00
2019-05-19T11:49:27.536Z,2.10
2019-05-19T11:50:27.478Z,1.80
2019-05-19T11:51:27.481Z,2.10
2019-05-19T11:52:27.458Z,2.40
2019-05-19T11:53:27.437Z,2.30
2019-05-19T11:54:27.439Z,1.90
2019-05-19T11:55:27.479Z,1.90
2019-05-19T11:56:27.443Z,1.90
2019-05-19T11:57:27.418Z,2.20
2019-05-19T11:58:27.387Z,1.90
2019-05-19T11:59:27.400Z,2.20
2019-05-19T12:00:27.377Z,2.00
2019-05-19T12:01:27.411Z,2.00
2019-05-19T12:02:38.407Z,2.00
2019-05-19T12:03:27.338Z,2.10
2019-05-19T12:04:27.347Z,2.20
2019-05-19T12:05:27.420Z,1.80
2019-05-19T12:06:38.940Z,2.20
2019-05-19T12:07:28.308Z,1.80
2019-05-19T12:08:27.296Z,2.10
2019-05-19T12:09:27.313Z,2.10
2019-05-19T12:10:27.298Z,2.40
2019-05-19T12:11:27.314Z,1.90
2019-05-19T12:12:27.279Z,1.80
2019-05-19T12:13:27.241Z,2.00
2019-05-19T12:14:27.238Z,2.20
2019-05-19T12:15:27.223Z,1.90
2019-05-19T12:16:27.208Z,2.00
2019-05-19T12:17:27.231Z,1.80
2019-05-19T12:18:27.189Z,2.30
2019-05-19T12:19:27.181Z,1.70
2019-05-19T12:20:27.179Z,2.10
2019-05-19T12:21:27.169Z,2.00
2019-05-19T12:22:27.176Z,1.70
2019-05-19T12:23:27.173Z,1.70
2019-05-19T12:24:27.134Z,1.80
2019-05-19T12:25:27.145Z,1.30
2019-05-19T12:26:27.111Z,1.60
2019-05-19T12:27:27.090Z,1.70
2019-05-19T12:28:27.147Z,1.80
2019-05-19T12:29:27.145Z,1.70
2019-05-19T12:30:27.093Z,1.40
2019-05-19T12:31:27.062Z,1.60
2019-05-19T12:32:27.075Z,1.40
2019-05-19T12:33:50.989Z,1.70
2019-05-19T12:34:28.023Z,1.60
2019-05-19T12:35:27.055Z,1.80
2019-05-19T12:36:26.995Z,1.50
2019-05-19T12:37:27.051Z,1.50
2019-05-19T12:38:27.002Z,1.50
2019-05-19T12:39:26.981Z,1.40
2019-05-19T12:40:26.971Z,1.50
2019-05-19T12:41:26.950Z,1.40
2019-05-19T12:42:26.930Z,1.50
2019-05-19T12:43:26.952Z,1.50
2019-05-19T12:44:26.934Z,1.40
2019-05-19T12:45:26.918Z,1.50
2019-05-19T12:46:26.888Z,1.90
2019-05-19T12:47:26.886Z,2.50
2019-05-19T12:48:26.881Z,1.50
2019-05-19T12:49:26.881Z,2.10
2019-05-19T12:50:26.889Z,1.60
2019-05-19T12:51:27.104Z,1.90
2019-05-19T12:52:26.839Z,1.70
2019-05-19T12:53:26.831Z,1.70
2019-05-19T12:54:26.858Z,1.80
2019-05-19T12:55:26.809Z,2.90
2019-05-19T12:56:39.248Z,1.80
2019-05-19T12:57:27.781Z,1.60
2019-05-19T12:58:26.769Z,1.90
2019-05-19T12:59:26.770Z,1.90
2019-05-19T13:00:26.758Z,1.50
2019-05-19T13:01:26.763Z,1.80
2019-05-19T13:02:26.732Z,1.60
2019-05-19T13:03:26.721Z,1.80
2019-05-19T13:04:36.986Z,1.70
2019-05-19T13:05:26.701Z,1.60
2019-05-19T13:06:26.683Z,1.70
2019-05-19T13:07:26.705Z,3.10
2019-05-19T13:08:26.663Z,11.70
2019-05-19T13:09:26.673Z,8.90
2019-05-19T13:10:26.645Z,8.20
2019-05-19T13:11:26.648Z,10.20
2019-05-19T13:12:26.656Z,16.90
2019-05-19T13:13:26.623Z,15.10
2019-05-19T13:14:26.605Z,6.90
2019-05-19T13:15:26.598Z,3.50
2019-05-19T13:16:26.581Z,3.30
2019-05-19T13:17:27.323Z,2.00
2019-05-19T13:18:26.566Z,1.70
2019-05-19T13:19:26.586Z,2.00
2019-05-19T13:20:26.549Z,1.70
2019-05-19T13:21:26.560Z,1.80
2019-05-19T13:22:26.531Z,2.20
2019-05-19T13:23:26.518Z,1.90
2019-05-19T13:24:26.494Z,1.90
2019-05-19T13:25:26.586Z,1.70
2019-05-19T13:26:26.474Z,1.70
2019-05-19T13:27:26.469Z,1.70
2019-05-19T13:28:26.496Z,1.80
2019-05-19T13:29:26.455Z,1.70
2019-05-19T13:30:26.480Z,1.80
2019-05-19T13:31:26.425Z,1.70
2019-05-19T13:32:26.429Z,2.60
2019-05-19T13:33:26.403Z,2.30
2019-05-19T13:34:26.416Z,1.90
2019-05-19T13:35:36.969Z,2.10
2019-05-19T13:36:26.393Z,2.00
2019-05-19T13:37:26.395Z,2.40
2019-05-19T13:38:26.364Z,6.80
2019-05-19T13:39:26.362Z,10.50
2019-05-19T13:40:26.477Z,10.00
2019-05-19T13:41:26.330Z,6.40
2019-05-19T13:42:26.321Z,2.10
2019-05-19T13:43:27.334Z,2.30
2019-05-19T13:44:26.287Z,1.60
2019-05-19T13:45:26.278Z,1.50
2019-05-19T13:46:26.288Z,1.80
2019-05-19T13:47:26.299Z,2.20
2019-05-19T13:48:26.263Z,1.70
2019-05-19T13:49:26.267Z,2.30
2019-05-19T13:50:26.302Z,2.30
2019-05-19T13:51:26.220Z,1.40
2019-05-19T13:52:26.218Z,1.70
2019-05-19T13:53:26.212Z,1.90
2019-05-19T13:54:26.203Z,3.00
2019-05-19T13:55:26.180Z,2.30
2019-05-19T13:56:26.178Z,2.90
2019-05-19T13:57:26.169Z,5.20
2019-05-19T13:58:26.148Z,3.10
2019-05-19T13:59:26.150Z,2.10
2019-05-19T14:00:26.119Z,2.00
2019-05-19T14:01:28.786Z,4.30
2019-05-19T14:02:26.161Z,7.00
2019-05-19T14:03:26.091Z,8.20
2019-05-19T14:04:26.103Z,5.00
2019-05-19T14:05:26.085Z,4.70
2019-05-19T14:06:36.979Z,3.10
2019-05-19T14:07:26.045Z,2.20
2019-05-19T14:08:26.075Z,3.30
2019-05-19T14:09:26.058Z,2.30
2019-05-19T14:10:26.036Z,2.00
2019-05-19T14:11:26.023Z,2.00
2019-05-19T14:12:26.013Z,1.80
2019-05-19T14:13:25.984Z,1.80
2019-05-19T14:14:25.998Z,1.80